KSBM/SBM METAR and TAF weather

Enter ICAO airport designator
Station Type Date Time Source
KSBM METAR 2021/05/11 01:53 UTC NOAA

KSBM 110153Z AUTO 10004KT 10SM BKN055 OVC070 06/01 A3022 RMK AO2 RAB14E31 SLP238 P0000 T00610011


Station Type Date Time Source
KSBM Decoded METAR 2021/05/11 01:53 UTC NOAA

SHEBOYGAN CO MEMORIAL AIRPORT , WI, United States (KSBM) 43-47N 87-51W 232M
May 10, 2021 - 09:53 PM EDT / 2021.05.11 0153 UTC
Wind: from the E (100 degrees) at 5 MPH (4 KT):0
Visibility: 10 mile(s):0
Sky conditions: overcast
Precipitation last hour: A trace
Temperature: 43.0 F (6.1 C)
Dew Point: 34.0 F (1.1 C)
Relative Humidity: 70%
Pressure (altimeter): 30.22 in. Hg (1023 hPa)
ob: KSBM 110153Z AUTO 10004KT 10SM BKN055 OVC070 06/01 A3022 RMK AO2 RAB14E31 SLP238 P0000 T00610011
cycle: 2

Station Type Date Time Source
KSBM TAF 2021/05/10 18:42 UTC NOAA

TAF KSBM 101734Z 1018/1118 08008KT P6SM BKN040
FM110100 06004KT P6SM SCT060
FM110600 34003KT P6SM FEW070
FM111300 33007KT P6SM SKC
FM111700 35009KT P6SM FEW120

Example: see airport list